Time;durP1;ratioP1;P1;durP2;ratioP2;P2;SDS_P1;SDS_P2;PMS_P1;PMS_P2;Temp;Humidity;BMP_temperature;BMP_pressure;BME280_temperature;BME280_humidity;BME280_pressure;Samples;Min_cycle;Max_cycle;Signal;HPM_P1;HPM_P2
2021/06/20 00:01:28;;;;;;;14.60;13.40;;;;;;;23.68;60.62;99027.41;4980859;28;20232;-85
2021/06/20 00:03:55;;;;;;;14.68;13.50;;;;;;;23.66;60.96;99025.00;4999292;28;20224;-84
2021/06/20 00:06:35;;;;;;;14.50;13.23;;;;;;;23.60;61.40;99034.50;4983581;28;20692;-84
2021/06/20 00:09:11;;;;;;;13.90;12.75;;;;;;;23.51;61.49;99032.88;4999955;28;20228;-83
2021/06/20 00:11:40;;;;;;;13.65;12.55;;;;;;;23.46;61.87;99031.09;4968249;28;20677;-85
2021/06/20 00:14:07;;;;;;;14.07;12.80;;;;;;;23.45;61.92;99040.41;4999632;28;20318;-85
2021/06/20 00:16:35;;;;;;;13.93;12.82;;;;;;;23.42;61.99;99048.41;4983966;28;20267;-84
2021/06/20 00:19:03;;;;;;;14.65;13.32;;;;;;;23.34;62.30;99047.25;5000201;28;20323;-81
2021/06/20 00:21:29;;;;;;;14.20;13.13;;;;;;;23.24;62.39;99044.81;4999965;28;20231;-83
2021/06/20 00:23:56;;;;;;;14.25;13.15;;;;;;;23.23;62.73;99044.03;5000172;28;20238;-84
2021/06/20 00:26:23;;;;;;;13.73;12.63;;;;;;;23.24;62.76;99061.19;4983539;28;20690;-85
2021/06/20 00:28:50;;;;;;;13.95;12.95;;;;;;;23.23;62.75;99051.41;4999730;28;20227;-81
2021/06/20 00:31:16;;;;;;;13.68;12.57;;;;;;;23.13;62.72;99049.78;4999622;28;20341;-86
2021/06/20 00:33:43;;;;;;;13.10;12.20;;;;;;;23.14;63.20;99054.09;4999991;28;20635;-82
2021/06/20 00:36:10;;;;;;;13.30;12.30;;;;;;;23.08;63.14;99054.56;4999130;28;20227;-83
2021/06/20 00:38:38;;;;;;;12.95;11.82;;;;;;;22.99;63.52;99049.06;4999693;28;20326;-86
2021/06/20 00:41:05;;;;;;;12.95;11.95;;;;;;;22.89;63.60;99032.97;4966995;28;20241;-86
2021/06/20 00:43:31;;;;;;;13.20;12.10;;;;;;;22.93;63.78;99039.41;4999681;28;20231;-84
2021/06/20 00:45:58;;;;;;;13.27;12.27;;;;;;;22.86;63.80;99030.06;4983359;28;20231;-83
2021/06/20 00:48:25;;;;;;;13.90;12.80;;;;;;;22.90;63.64;99031.03;4999134;28;20234;-83
2021/06/20 00:50:52;;;;;;;13.48;12.48;;;;;;;22.81;63.96;99023.63;4967320;28;20493;-86
2021/06/20 00:53:20;;;;;;;13.70;12.52;;;;;;;22.82;64.50;99021.66;4983362;28;20227;-87
2021/06/20 00:55:50;;;;;;;14.27;12.98;;;;;;;22.83;65.01;99029.56;4983199;28;20226;-87
2021/06/20 00:58:20;;;;;;;14.30;13.05;;;;;;;22.67;65.00;98994.75;5016253;28;20262;-86
2021/06/20 01:00:47;;;;;;;15.18;13.95;;;;;;;22.78;65.14;99015.22;4983239;28;20226;-85
2021/06/20 01:03:14;;;;;;;14.38;13.10;;;;;;;22.75;64.97;99008.47;4983059;28;20260;-86
2021/06/20 01:05:42;;;;;;;14.88;13.77;;;;;;;22.64;64.86;98996.19;4998933;28;20314;-84
2021/06/20 01:08:10;;;;;;;15.63;14.25;;;;;;;22.65;65.30;99005.97;4982451;28;20333;-85
2021/06/20 01:10:37;;;;;;;15.48;14.18;;;;;;;22.47;65.79;98990.63;4982987;28;20526;-84
2021/06/20 01:13:06;;;;;;;15.77;14.50;;;;;;;22.50;65.29;98992.72;4999110;28;20280;-85
2021/06/20 01:15:33;;;;;;;15.23;14.02;;;;;;;22.39;65.81;98992.22;4999106;28;20237;-86
2021/06/20 01:18:00;;;;;;;14.88;13.73;;;;;;;22.30;66.08;98987.81;4966220;28;20233;-82
2021/06/20 01:20:27;;;;;;;15.25;14.02;;;;;;;22.33;66.38;98989.91;4999018;28;20230;-83
2021/06/20 01:22:55;;;;;;;16.23;14.73;;;;;;;22.28;66.60;98985.38;4998901;28;20254;-80
2021/06/20 01:25:24;;;;;;;15.73;14.30;;;;;;;22.18;67.06;98979.38;4998962;28;20226;-84
2021/06/20 01:27:56;;;;;;;14.52;13.23;;;;;;;22.15;67.10;98969.09;4998591;28;20277;-84
2021/06/20 01:30:25;;;;;;;15.93;14.52;;;;;;;22.06;67.28;98968.22;4998665;28;20234;-84
2021/06/20 01:32:53;;;;;;;14.98;13.55;;;;;;;22.04;67.61;98976.72;4998760;28;20226;-85
2021/06/20 01:35:20;;;;;;;16.17;14.77;;;;;;;21.97;67.86;98979.09;5015829;28;20236;-83
2021/06/20 01:37:48;;;;;;;15.63;14.13;;;;;;;21.90;67.83;98973.22;4982510;28;20317;-86
2021/06/20 01:40:17;;;;;;;15.02;13.93;;;;;;;21.87;67.85;98985.56;4998047;28;20233;-80
2021/06/20 01:42:44;;;;;;;15.23;13.80;;;;;;;21.80;67.92;98984.34;4966199;28;20225;-83
2021/06/20 01:45:12;;;;;;;15.82;14.43;;;;;;;21.77;67.94;98977.59;4966141;28;20233;-85
2021/06/20 01:47:39;;;;;;;16.13;14.85;;;;;;;21.79;67.77;98975.38;4982396;28;20233;-80
2021/06/20 01:50:09;;;;;;;15.43;14.13;;;;;;;21.50;68.67;98975.78;4997876;28;20258;-83
2021/06/20 01:52:36;;;;;;;15.40;14.03;;;;;;;21.35;69.06;98973.38;4965579;28;20230;-81
2021/06/20 01:55:04;;;;;;;15.82;14.52;;;;;;;21.31;69.89;98972.38;4982368;28;20604;-82
2021/06/20 01:57:33;;;;;;;15.47;14.17;;;;;;;21.26;70.09;98968.97;4982009;28;20573;-81
2021/06/20 02:00:02;;;;;;;15.67;14.40;;;;;;;21.24;70.15;98974.69;4982317;28;20698;-85
2021/06/20 02:02:39;;;;;;;15.67;14.37;;;;;;;21.17;70.64;98959.91;5015312;28;20309;-83
2021/06/20 02:05:06;;;;;;;15.73;14.50;;;;;;;21.17;70.36;98954.44;4994449;28;20541;-81
2021/06/20 02:07:35;;;;;;;15.57;14.13;;;;;;;21.17;70.56;98959.91;4995951;28;20311;-82
2021/06/20 02:10:05;;;;;;;16.03;14.73;;;;;;;21.10;70.70;98947.44;4978715;28;20229;-81
2021/06/20 02:12:32;;;;;;;15.83;14.53;;;;;;;21.16;70.92;98955.56;4978941;28;20230;-82
2021/06/20 02:14:59;;;;;;;16.40;15.00;;;;;;;21.10;71.24;98944.72;4962604;28;20230;-82
2021/06/20 02:17:27;;;;;;;15.43;14.23;;;;;;;21.09;70.97;98945.03;4978789;28;20285;-85
2021/06/20 02:19:56;;;;;;;15.50;14.30;;;;;;;21.14;71.05;98944.16;4994741;28;20554;-85
2021/06/20 02:22:23;;;;;;;15.93;14.63;;;;;;;21.04;71.46;98939.72;4995374;28;20236;-83
2021/06/20 02:24:50;;;;;;;16.20;14.90;;;;;;;21.10;71.37;98947.44;4994866;28;20224;-82
2021/06/20 02:27:17;;;;;;;16.07;14.60;;;;;;;21.06;70.99;98945.66;4978724;28;20291;-82
2021/06/20 02:29:46;;;;;;;16.40;15.00;;;;;;;20.88;71.68;98933.75;4994437;28;20238;-80
2021/06/20 02:32:13;;;;;;;16.93;15.43;;;;;;;20.88;72.21;98939.22;4978193;28;20258;-84
2021/06/20 02:34:41;;;;;;;17.23;15.63;;;;;;;20.97;71.94;98947.47;4994841;28;20226;-83
2021/06/20 02:37:09;;;;;;;17.60;16.03;;;;;;;20.90;72.05;98960.69;4994679;28;20649;-82
2021/06/20 02:39:36;;;;;;;16.53;15.33;;;;;;;20.77;72.22;98950.59;4978298;28;20546;-83
2021/06/20 02:42:03;;;;;;;16.90;15.57;;;;;;;20.82;72.53;98953.22;4978102;28;20252;-84
2021/06/20 02:44:30;;;;;;;16.97;15.63;;;;;;;20.81;72.58;98946.19;4995445;28;20285;-85
2021/06/20 02:46:59;;;;;;;17.40;15.93;;;;;;;20.74;72.99;98952.00;4978748;28;20224;-80
2021/06/20 02:49:26;;;;;;;16.70;15.30;;;;;;;20.71;72.70;98940.94;4994438;28;20236;-85
2021/06/20 02:51:53;;;;;;;16.90;15.60;;;;;;;20.79;72.82;98954.63;4994503;28;20257;-84
2021/06/20 02:54:20;;;;;;;17.73;16.43;;;;;;;20.74;72.74;98957.47;4995112;28;20281;-82
2021/06/20 02:56:47;;;;;;;18.33;16.83;;;;;;;20.67;73.01;98943.44;4994470;28;20235;-83
2021/06/20 02:59:14;;;;;;;17.80;16.33;;;;;;;20.63;73.16;98956.03;4995366;28;20588;-81
2021/06/20 03:01:41;;;;;;;18.30;16.53;;;;;;;20.59;73.41;98947.66;4978385;28;20708;-83
2021/06/20 03:04:08;;;;;;;18.53;17.13;;;;;;;20.67;73.36;98963.28;4996106;28;20246;-84
2021/06/20 03:06:35;;;;;;;17.53;16.03;;;;;;;20.63;73.91;98967.72;4982114;28;20690;-84
2021/06/20 03:09:02;;;;;;;18.60;16.90;;;;;;;20.67;73.28;98967.94;4999049;28;20289;-86
2021/06/20 03:11:29;;;;;;;17.90;16.50;;;;;;;20.62;73.50;98957.94;4981874;28;20318;-84
2021/06/20 03:13:56;;;;;;;18.53;16.83;;;;;;;20.63;73.63;98950.59;4999064;28;20319;-81
2021/06/20 03:16:23;;;;;;;18.13;16.73;;;;;;;20.64;73.84;98952.22;4981377;28;20235;-84
2021/06/20 03:18:50;;;;;;;18.43;16.83;;;;;;;20.71;73.61;98958.06;4981765;28;20244;-84
2021/06/20 03:21:17;;;;;;;17.57;16.07;;;;;;;20.74;73.59;98952.00;4997689;28;20329;-84
2021/06/20 03:23:44;;;;;;;19.20;17.60;;;;;;;20.76;73.22;98935.38;4981832;28;20254;-81
2021/06/20 03:26:11;;;;;;;18.23;16.73;;;;;;;20.67;73.25;98927.09;4997449;28;20256;-85
2021/06/20 03:28:38;;;;;;;17.93;16.40;;;;;;;20.80;73.23;98934.47;4981585;28;20251;-83
2021/06/20 03:31:05;;;;;;;18.47;16.97;;;;;;;20.77;72.93;98923.38;4997536;28;20630;-80
2021/06/20 03:33:33;;;;;;;18.40;17.00;;;;;;;20.86;72.96;98946.84;4997848;28;20244;-82
2021/06/20 03:36:01;;;;;;;19.03;17.40;;;;;;;20.92;72.73;98948.38;4981153;28;20247;-78
2021/06/20 03:38:28;;;;;;;19.30;17.67;;;;;;;20.95;72.43;98936.88;4981408;28;20227;-84
2021/06/20 03:40:55;;;;;;;19.10;17.60;;;;;;;21.01;72.30;98943.03;4981549;28;20315;-82
2021/06/20 03:43:22;;;;;;;18.73;17.23;;;;;;;21.07;71.89;98939.91;4981532;28;20229;-85
2021/06/20 03:45:48;;;;;;;19.00;17.50;;;;;;;21.13;71.67;98950.69;4981409;28;20234;-85
2021/06/20 03:48:15;;;;;;;19.27;17.83;;;;;;;21.18;71.66;98943.25;4996200;28;20246;-81
2021/06/20 03:50:42;;;;;;;19.27;17.77;;;;;;;21.30;71.38;98954.41;4996757;28;20224;-83
2021/06/20 03:53:11;;;;;;;20.50;18.67;;;;;;;21.30;71.26;98959.06;4980759;28;20229;-80
2021/06/20 03:55:38;;;;;;;19.13;17.63;;;;;;;21.37;71.35;98951.28;4981133;28;20533;-84
2021/06/20 03:58:06;;;;;;;18.37;16.87;;;;;;;21.53;70.99;98955.25;4996650;28;20233;-82
2021/06/20 04:00:34;;;;;;;18.37;16.93;;;;;;;21.64;70.79;98953.94;4997012;28;20301;-86
2021/06/20 04:03:05;;;;;;;18.43;16.93;;;;;;;21.96;69.98;98966.56;5013286;28;20221;-83
2021/06/20 04:05:32;;;;;;;18.43;16.90;;;;;;;22.41;68.60;98964.59;4996736;28;20232;-80
2021/06/20 04:07:59;;;;;;;18.77;17.03;;;;;;;23.02;66.49;98974.69;4997099;28;20339;-81
2021/06/20 04:10:26;;;;;;;18.33;16.70;;;;;;;23.49;64.37;98959.38;4980385;28;20242;-83
2021/06/20 04:12:54;;;;;;;16.98;15.57;;;;;;;24.04;63.03;98955.97;4980682;28;20241;-85
2021/06/20 04:15:21;;;;;;;17.73;16.23;;;;;;;24.77;60.48;98959.50;4996113;28;20239;-85
2021/06/20 04:17:48;;;;;;;16.98;15.57;;;;;;;25.22;58.66;98957.03;4996706;28;20537;-82
2021/06/20 04:20:15;;;;;;;16.83;15.32;;;;;;;25.63;57.50;98961.78;4996251;28;20261;-84
2021/06/20 04:22:44;;;;;;;16.23;15.02;;;;;;;25.98;56.58;98945.84;4996801;28;20298;-86
2021/06/20 04:25:16;;;;;;;16.25;14.93;;;;;;;26.34;55.51;98951.47;4996767;28;20313;-84
2021/06/20 04:27:48;;;;;;;16.60;15.23;;;;;;;26.98;53.76;98957.16;4996636;28;20282;-84
2021/06/20 04:30:17;;;;;;;18.08;16.60;;;;;;;27.81;51.37;99010.84;4996448;28;20587;-84
2021/06/20 04:32:44;;;;;;;17.50;15.95;;;;;;;28.55;48.95;99024.00;4996583;28;20288;-84
2021/06/20 04:35:17;;;;;;;17.15;15.75;;;;;;;29.37;47.00;99026.09;4996755;28;20231;-85
2021/06/20 04:37:45;;;;;;;16.02;14.65;;;;;;;29.88;45.30;99024.94;4996809;28;20237;-83
2021/06/20 04:40:17;;;;;;;16.77;15.48;;;;;;;29.76;45.11;98986.41;4980150;28;20240;-83
2021/06/20 04:42:46;;;;;;;16.33;14.98;;;;;;;29.07;46.85;98957.59;4980917;28;20244;-84
2021/06/20 04:45:14;;;;;;;16.23;15.02;;;;;;;28.51;48.29;98951.44;4997796;28;20204;-84
2021/06/20 04:47:44;;;;;;;16.08;14.73;;;;;;;28.08;49.27;98957.75;4980793;28;20313;-85
2021/06/20 04:50:11;;;;;;;17.40;15.80;;;;;;;27.71;50.01;98962.59;4996222;28;20245;-80
2021/06/20 04:52:42;;;;;;;16.88;15.57;;;;;;;27.51;50.37;98978.13;4996877;28;20286;-88
2021/06/20 04:55:10;;;;;;;16.90;15.50;;;;;;;27.08;51.57;98970.47;4996778;28;20652;-89
2021/06/20 04:57:37;;;;;;;17.25;15.85;;;;;;;26.90;52.84;98968.28;4980549;28;20244;-88
2021/06/20 05:00:06;;;;;;;15.88;14.68;;;;;;;26.92;53.00;98971.50;4996250;28;20259;-84
2021/06/20 05:02:33;;;;;;;16.35;15.07;;;;;;;26.45;53.62;98969.13;4980485;28;20233;-88
2021/06/20 05:05:01;;;;;;;16.38;14.80;;;;;;;26.24;54.13;98971.09;4996097;28;20537;-88
2021/06/20 05:07:28;;;;;;;16.35;15.13;;;;;;;26.43;53.88;98978.84;4996391;28;20234;-84
2021/06/20 05:09:54;;;;;;;16.40;15.00;;;;;;;26.58;53.90;98989.97;4980187;28;20705;-87
2021/06/20 05:12:21;;;;;;;16.23;14.57;;;;;;;26.52;54.08;98987.78;4995179;28;20234;-82
2021/06/20 05:14:48;;;;;;;16.95;15.75;;;;;;;26.45;54.07;98979.31;4995634;28;20228;-88
2021/06/20 05:17:17;;;;;;;15.10;13.70;;;;;;;26.66;53.22;98971.78;4979442;28;20275;-88
2021/06/20 05:19:44;;;;;;;14.20;13.18;;;;;;;26.83;52.37;98968.81;4980196;28;20233;-87
2021/06/20 05:22:15;;;;;;;15.40;14.20;;;;;;;27.03;52.15;98987.19;4996970;28;20653;-88
2021/06/20 05:24:42;;;;;;;15.45;14.05;;;;;;;26.92;52.66;98974.25;4996337;28;20234;-86
2021/06/20 05:27:09;;;;;;;14.40;13.30;;;;;;;27.16;52.53;98979.72;4996046;28;20235;-84
2021/06/20 05:29:37;;;;;;;14.77;13.68;;;;;;;27.25;52.04;98983.16;4996031;28;20233;-84
2021/06/20 05:32:05;;;;;;;16.25;14.77;;;;;;;27.35;51.44;98979.13;4978895;28;20233;-87
2021/06/20 05:34:31;;;;;;;16.08;14.65;;;;;;;27.32;51.42;98979.84;4995877;28;20645;-84
2021/06/20 05:36:58;;;;;;;15.40;14.05;;;;;;;27.34;51.34;98981.09;4995735;28;20627;-85
2021/06/20 05:39:25;;;;;;;14.30;13.20;;;;;;;27.36;51.21;98987.06;4995810;28;20661;-86
2021/06/20 05:41:52;;;;;;;16.30;14.82;;;;;;;27.26;51.90;98989.47;4995888;28;20239;-83
2021/06/20 05:44:18;;;;;;;15.98;14.63;;;;;;;27.13;51.73;98978.47;4996457;28;20255;-88
2021/06/20 05:46:45;;;;;;;14.63;13.30;;;;;;;27.33;51.94;98990.50;4995900;28;20259;-85
2021/06/20 05:49:12;;;;;;;13.88;12.88;;;;;;;27.40;51.75;98976.16;4996889;28;20282;-88
2021/06/20 05:51:39;;;;;;;13.40;12.32;;;;;;;27.62;51.15;98975.72;4995771;28;20227;-86
2021/06/20 05:54:05;;;;;;;13.88;12.88;;;;;;;27.83;50.68;98970.81;4994988;28;20235;-88
2021/06/20 05:56:32;;;;;;;13.60;12.50;;;;;;;27.71;50.52;98967.31;4995416;28;20233;-87
2021/06/20 05:58:59;;;;;;;13.65;12.52;;;;;;;28.04;50.25;98981.66;4995611;28;20310;-89
2021/06/20 06:01:26;;;;;;;13.20;12.20;;;;;;;28.19;49.82;98978.16;4995258;28;20314;-86
2021/06/20 06:03:53;;;;;;;13.13;12.02;;;;;;;28.35;49.42;98987.25;4997399;28;20321;-85
2021/06/20 06:06:19;;;;;;;13.65;12.60;;;;;;;28.45;49.21;98996.97;4981911;28;20230;-84
2021/06/20 06:08:46;;;;;;;13.80;12.68;;;;;;;28.61;49.20;98985.94;4998408;28;20591;-86
2021/06/20 06:11:13;;;;;;;14.18;12.93;;;;;;;28.78;48.93;98991.97;4998605;28;20230;-89
2021/06/20 06:13:39;;;;;;;13.55;12.45;;;;;;;28.72;48.81;98976.84;4998487;28;20254;-88
2021/06/20 06:16:06;;;;;;;13.23;12.15;;;;;;;28.83;48.71;98983.44;4998017;28;20309;-88
2021/06/20 06:18:33;;;;;;;14.80;13.63;;;;;;;28.84;48.33;98979.50;5014793;28;20250;-86
2021/06/20 06:21:04;;;;;;;13.82;12.82;;;;;;;28.71;48.08;98988.22;5015093;28;20234;-86
2021/06/20 06:23:31;;;;;;;14.63;13.52;;;;;;;28.95;48.46;98984.47;4998862;28;20261;-89
2021/06/20 06:25:58;;;;;;;14.13;13.05;;;;;;;29.17;48.17;98976.34;4998545;28;20250;-84
2021/06/20 06:28:24;;;;;;;14.35;13.07;;;;;;;29.06;48.00;98966.25;5014475;28;20266;-84
2021/06/20 06:30:51;;;;;;;13.52;12.43;;;;;;;29.43;47.33;98975.81;5014603;28;20638;-87
2021/06/20 06:33:18;;;;;;;13.65;12.60;;;;;;;29.60;48.24;98971.84;5014716;28;20235;-87
2021/06/20 06:35:45;;;;;;;13.52;12.50;;;;;;;29.60;47.93;98963.56;4998225;28;20233;-87
2021/06/20 06:38:11;;;;;;;14.23;13.13;;;;;;;29.69;47.93;98956.66;4998641;28;20293;-88
2021/06/20 06:40:38;;;;;;;13.20;12.20;;;;;;;29.83;47.86;98963.66;5019853;28;20231;-88
2021/06/20 06:43:05;;;;;;;13.80;12.70;;;;;;;29.98;47.09;98965.56;4986222;28;20531;-86
2021/06/20 06:45:32;;;;;;;13.85;12.75;;;;;;;30.14;46.72;98956.03;5018732;28;20309;-85
2021/06/20 06:47:59;;;;;;;12.98;11.88;;;;;;;30.42;47.31;98969.56;5018664;28;20227;-85
2021/06/20 06:50:26;;;;;;;13.05;12.15;;;;;;;30.53;46.70;98967.03;5019073;28;20615;-86
2021/06/20 06:52:54;;;;;;;13.20;12.13;;;;;;;30.42;46.96;98968.81;5001847;28;20223;-85
2021/06/20 06:55:21;;;;;;;12.10;11.20;;;;;;;30.89;45.84;98962.94;5002147;28;20232;-83
2021/06/20 06:57:48;;;;;;;12.30;11.20;;;;;;;31.16;45.16;98955.47;5001815;28;20257;-88
2021/06/20 07:00:15;;;;;;;11.82;10.82;;;;;;;31.19;44.59;98950.00;5001297;28;20642;-88
2021/06/20 07:02:42;;;;;;;12.35;11.45;;;;;;;31.52;44.13;98949.28;5002065;28;20242;-87
2021/06/20 07:05:09;;;;;;;12.18;11.18;;;;;;;31.74;44.16;98953.16;5017721;28;20226;-87
2021/06/20 07:07:36;;;;;;;11.75;10.68;;;;;;;31.94;43.91;98953.78;5001917;28;20234;-86
2021/06/20 07:10:04;;;;;;;10.65;9.95;;;;;;;32.29;41.85;98934.81;5000864;28;20285;-88
2021/06/20 07:12:31;;;;;;;11.10;10.20;;;;;;;32.59;41.80;98940.25;5018940;28;20615;-85
2021/06/20 07:15:00;;;;;;;11.55;10.43;;;;;;;32.69;40.53;98939.59;5001740;28;20223;-86
2021/06/20 07:17:26;;;;;;;10.68;9.68;;;;;;;32.75;39.88;98927.78;5001790;28;20247;-86
2021/06/20 07:19:53;;;;;;;10.65;9.85;;;;;;;32.84;40.00;98929.41;5001533;28;20234;-88
2021/06/20 07:22:20;;;;;;;11.50;10.60;;;;;;;32.85;39.86;98928.25;4984102;28;20281;-83
2021/06/20 07:24:47;;;;;;;10.40;9.55;;;;;;;32.90;39.45;98925.09;5018772;28;20222;-83
2021/06/20 07:27:14;;;;;;;10.48;9.52;;;;;;;32.73;39.41;98929.31;4985200;28;20234;-82
2021/06/20 07:29:41;;;;;;;10.43;9.63;;;;;;;33.09;38.15;98920.06;5017494;28;20982;-84
2021/06/20 07:32:08;;;;;;;10.45;9.63;;;;;;;33.27;38.31;98936.09;5000860;28;20636;-86
2021/06/20 07:34:36;;;;;;;10.10;9.40;;;;;;;33.35;37.79;98923.84;5001208;28;20281;-85
2021/06/20 07:37:03;;;;;;;9.88;9.10;;;;;;;33.40;37.99;98929.03;4984950;28;20227;-88
2021/06/20 07:39:30;;;;;;;10.70;9.73;;;;;;;33.45;37.75;98923.91;5001034;28;20231;-88
2021/06/20 07:41:58;;;;;;;11.23;10.43;;;;;;;33.68;37.54;98934.75;5001334;28;20326;-84
2021/06/20 07:44:25;;;;;;;13.77;10.00;;;;;;;34.00;37.24;98929.31;5000608;28;20230;-88
2021/06/20 07:46:52;;;;;;;10.90;10.00;;;;;;;34.17;37.10;98930.53;5018296;28;20289;-85
2021/06/20 07:49:19;;;;;;;11.07;10.23;;;;;;;34.16;37.01;98940.06;5000216;28;20293;-88
2021/06/20 07:51:46;;;;;;;10.98;10.07;;;;;;;34.34;35.71;98932.63;5000183;28;20230;-85
2021/06/20 07:54:14;;;;;;;11.15;10.23;;;;;;;34.59;35.46;98941.75;5014560;28;20223;-87
2021/06/20 07:56:41;;;;;;;11.77;9.77;;;;;;;34.57;35.85;98929.47;4999356;28;20598;-87
2021/06/20 07:59:09;;;;;;;10.50;9.70;;;;;;;34.74;35.84;98932.28;4983483;28;20708;-85
2021/06/20 08:01:39;;;;;;;11.20;10.18;;;;;;;34.78;35.60;98935.03;4984265;28;20333;-85
2021/06/20 08:04:06;;;;;;;10.65;9.85;;;;;;;34.66;35.68;98939.00;4999683;28;20257;-88
2021/06/20 08:06:34;;;;;;;10.32;9.57;;;;;;;34.69;35.80;98929.88;4967977;28;20231;-86
2021/06/20 08:09:01;;;;;;;11.00;10.13;;;;;;;34.62;35.79;98924.31;4999682;28;20581;-84
2021/06/20 08:11:28;;;;;;;11.25;10.10;;;;;;;34.55;35.85;98935.41;4980655;28;20231;-82
2021/06/20 08:13:58;;;;;;;10.43;9.63;;;;;;;34.52;36.06;98940.97;4980152;28;20231;-83
2021/06/20 08:16:25;;;;;;;11.70;10.60;;;;;;;34.40;35.79;98931.81;4979916;28;20224;-84
2021/06/20 08:18:53;;;;;;;10.80;9.95;;;;;;;34.53;35.95;98937.00;4979853;28;20319;-86
2021/06/20 08:21:20;;;;;;;10.75;9.88;;;;;;;34.37;36.57;98940.94;4963026;28;20235;-83
2021/06/20 08:23:47;;;;;;;10.40;9.68;;;;;;;34.44;36.84;98940.16;4977668;28;20235;-83
2021/06/20 08:26:13;;;;;;;10.20;9.40;;;;;;;34.47;36.59;98947.72;4978313;28;20311;-84
2021/06/20 08:28:40;;;;;;;10.25;9.35;;;;;;;34.60;36.96;98934.22;4979726;28;20554;-85
2021/06/20 08:31:07;;;;;;;10.70;9.65;;;;;;;34.61;35.82;98925.50;4979820;28;20596;-85
2021/06/20 08:33:34;;;;;;;11.05;10.10;;;;;;;34.57;36.17;98930.25;4980080;28;20231;-83
2021/06/20 08:36:01;;;;;;;9.80;8.90;;;;;;;34.49;37.26;98915.53;4978996;28;20282;-84
2021/06/20 08:38:27;;;;;;;10.40;9.70;;;;;;;34.52;36.83;98907.59;4947619;28;20541;-83
2021/06/20 08:40:58;;;;;;;11.13;9.55;;;;;;;34.52;36.31;98916.75;4963374;28;20228;-83
2021/06/20 08:43:25;;;;;;;10.10;9.25;;;;;;;34.62;34.80;98926.28;4979949;28;20235;-83
2021/06/20 08:45:54;;;;;;;10.05;9.23;;;;;;;34.49;34.67;98918.31;4979082;28;20566;-83
2021/06/20 08:48:21;;;;;;;9.15;8.45;;;;;;;34.54;35.30;98913.53;4978858;28;20232;-82
2021/06/20 08:50:50;;;;;;;9.27;8.52;;;;;;;34.47;33.31;98906.00;4963272;28;20274;-83
2021/06/20 08:53:17;;;;;;;8.88;8.18;;;;;;;34.51;33.16;98909.59;4979279;28;20575;-84
2021/06/20 08:55:45;;;;;;;9.63;8.93;;;;;;;34.57;33.55;98902.44;4963027;28;20266;-81
2021/06/20 08:58:27;;;;;;;9.50;8.80;;;;;;;34.59;34.07;98900.03;4962656;28;20290;-84
2021/06/20 09:00:57;;;;;;;9.57;8.88;;;;;;;34.64;33.82;98894.09;4996128;28;20298;-81
2021/06/20 09:03:24;;;;;;;9.55;8.70;;;;;;;34.91;33.23;98898.06;4979059;28;20242;-82
2021/06/20 09:06:17;;;;;;;9.43;8.70;;;;;;;34.83;32.73;98896.50;4979161;28;20235;-82
2021/06/20 09:08:53;;;;;;;8.95;8.35;;;;;;;34.94;32.46;98888.13;4978064;28;20602;-83
2021/06/20 09:11:23;;;;;;;10.45;8.60;;;;;;;34.94;33.09;98888.13;4978839;28;20635;-83
2021/06/20 09:13:53;;;;;;;9.48;8.57;;;;;;;34.85;32.93;98879.41;4962791;28;20247;-83
2021/06/20 09:16:23;;;;;;;9.27;8.50;;;;;;;34.88;32.92;98870.25;4962720;28;20228;-83
2021/06/20 09:18:51;;;;;;;9.73;9.02;;;;;;;34.84;33.22;98869.47;4979791;28;20281;-80
2021/06/20 09:21:24;;;;;;;8.50;7.72;;;;;;;34.89;33.00;98867.06;4979413;28;20311;-84
2021/06/20 09:24:00;;;;;;;8.82;8.23;;;;;;;35.11;32.71;98865.03;4963904;28;20227;-81
2021/06/20 09:26:40;;;;;;;8.82;8.23;;;;;;;35.11;32.94;98855.88;4962290;28;20238;-82
2021/06/20 09:29:10;;;;;;;9.88;9.02;;;;;;;35.14;32.38;98857.84;4963151;28;20239;-83
2021/06/20 09:31:43;;;;;;;9.55;8.75;;;;;;;35.31;32.66;98857.84;4978805;28;20270;-82
2021/06/20 09:34:16;;;;;;;9.38;8.63;;;;;;;35.50;32.59;98851.03;4995818;28;20242;-83
2021/06/20 09:36:46;;;;;;;10.23;9.43;;;;;;;35.50;31.90;98856.59;4962740;28;20231;-83
2021/06/20 09:39:24;;;;;;;9.00;8.40;;;;;;;35.51;32.20;98844.22;4979226;28;20711;-82
2021/06/20 09:41:57;;;;;;;9.05;8.25;;;;;;;35.63;31.38;98857.72;4962989;28;20227;-83
2021/06/20 09:44:37;;;;;;;9.35;8.52;;;;;;;35.70;30.81;98846.56;4977728;28;20232;-83
2021/06/20 09:47:05;;;;;;;10.63;8.05;;;;;;;35.82;31.36;98852.88;4978689;28;20531;-80
2021/06/20 09:49:37;;;;;;;9.60;8.57;;;;;;;35.93;30.27;98854.38;4962783;28;20227;-84
2021/06/20 09:52:04;;;;;;;8.60;8.00;;;;;;;36.22;29.89;98857.00;4976999;28;20231;-82
2021/06/20 09:54:33;;;;;;;9.73;8.93;;;;;;;36.26;29.53;98844.63;4961268;28;20294;-83
2021/06/20 09:57:00;;;;;;;8.55;7.75;;;;;;;36.37;29.55;98850.94;4977798;28;20232;-82
2021/06/20 09:59:30;;;;;;;10.18;8.55;;;;;;;36.31;30.38;98846.19;4962410;28;20532;-84
2021/06/20 10:02:07;;;;;;;9.15;8.25;;;;;;;36.57;29.21;98846.38;4979321;28;20242;-82
2021/06/20 10:04:36;;;;;;;9.18;8.45;;;;;;;36.66;29.58;98851.50;4972486;28;20259;-82
2021/06/20 10:07:04;;;;;;;9.13;8.43;;;;;;;36.85;28.85;98841.75;4957312;28;20236;-82
2021/06/20 10:09:36;;;;;;;9.07;8.40;;;;;;;36.97;28.66;98839.22;4958108;28;20710;-83
2021/06/20 10:12:05;;;;;;;9.13;8.30;;;;;;;37.05;28.47;98835.16;4973863;28;20236;-82
2021/06/20 10:14:32;;;;;;;9.25;8.57;;;;;;;37.12;28.67;98839.91;4958601;28;20228;-83
2021/06/20 10:17:05;;;;;;;9.00;8.15;;;;;;;37.26;28.80;98836.16;4975109;28;20253;-82
2021/06/20 10:19:32;;;;;;;9.32;8.70;;;;;;;37.58;29.01;98844.94;4958315;28;20225;-83
2021/06/20 10:22:08;;;;;;;9.45;8.75;;;;;;;37.61;26.97;98829.38;4957482;28;20236;-84
2021/06/20 10:24:55;;;;;;;9.32;8.52;;;;;;;37.57;27.52;98843.38;4974478;28;20655;-81
2021/06/20 10:27:35;;;;;;;9.30;8.60;;;;;;;37.66;28.34;98842.84;4943257;28;20259;-81
2021/06/20 10:30:05;;;;;;;9.38;8.65;;;;;;;38.07;28.13;98840.72;4974579;28;20231;-84
2021/06/20 10:32:51;;;;;;;9.35;8.60;;;;;;;38.32;27.16;98841.09;4959025;28;20628;-83
2021/06/20 10:35:20;;;;;;;10.25;9.45;;;;;;;38.25;27.26;98846.81;4975015;28;20236;-81
2021/06/20 10:37:50;;;;;;;9.35;8.57;;;;;;;38.31;27.15;98844.31;4958644;28;20228;-83
2021/06/20 10:40:43;;;;;;;8.98;8.27;;;;;;;38.42;26.75;98835.75;4974559;28;20250;-83
2021/06/20 10:43:20;;;;;;;9.60;8.90;;;;;;;38.43;27.26;98840.94;4958781;28;20659;-84
2021/06/20 10:45:47;;;;;;;9.40;8.70;;;;;;;38.28;27.11;98828.38;4975075;28;20286;-80
2021/06/20 10:48:17;;;;;;;9.30;8.48;;;;;;;38.23;26.83;98828.84;4958406;28;20238;-83
2021/06/20 10:50:48;;;;;;;11.57;10.43;;;;;;;38.34;26.48;98827.47;4975027;28;20282;-82
2021/06/20 10:53:16;;;;;;;12.52;11.38;;;;;;;38.54;27.54;98826.78;4975871;28;20283;-83
2021/06/20 10:55:48;;;;;;;10.00;9.20;;;;;;;38.75;26.45;98821.59;4975731;28;20263;-81
2021/06/20 10:58:23;;;;;;;9.63;8.75;;;;;;;38.70;26.34;98822.09;4975220;28;20251;-82
2021/06/20 11:00:52;;;;;;;9.63;8.90;;;;;;;38.55;26.64;98805.97;4974867;28;20298;-82
2021/06/20 11:03:28;;;;;;;9.40;8.57;;;;;;;38.61;26.44;98807.84;4958675;28;20228;-83
2021/06/20 11:06:14;;;;;;;9.02;8.40;;;;;;;38.39;27.26;98805.84;4974442;28;20271;-82
2021/06/20 11:08:42;;;;;;;9.50;8.82;;;;;;;38.44;27.10;98792.19;4974404;28;20228;-83
2021/06/20 11:11:17;;;;;;;9.65;8.77;;;;;;;38.33;27.22;98800.72;4974762;28;20307;-82
2021/06/20 11:14:09;;;;;;;9.10;8.38;;;;;;;38.42;27.09;98802.97;4974729;28;20578;-81
2021/06/20 11:16:37;;;;;;;10.40;9.40;;;;;;;38.61;26.52;98798.66;4974248;28;20232;-83
2021/06/20 11:19:05;;;;;;;9.45;8.70;;;;;;;38.73;27.07;98796.03;4958414;28;20228;-83
2021/06/20 11:21:40;;;;;;;9.45;8.55;;;;;;;39.19;26.20;98791.56;4974691;28;20291;-82
2021/06/20 11:24:10;;;;;;;9.88;9.10;;;;;;;39.73;25.71;98822.06;4958780;28;20279;-82
2021/06/20 11:26:37;;;;;;;10.50;9.63;;;;;;;39.98;25.74;98800.69;4978080;28;20311;-81
2021/06/20 11:29:06;;;;;;;10.00;9.20;;;;;;;39.71;25.48;98808.47;4962398;28;20282;-82